createdAt,value
2022-10-08T00:01:31.176Z,12.30
2022-10-08T00:03:59.400Z,12.30
2022-10-08T00:06:29.805Z,12.30
2022-10-08T00:09:02.183Z,12.40
2022-10-08T00:11:32.778Z,12.40
2022-10-08T00:14:01.923Z,12.40
2022-10-08T00:16:32.862Z,12.50
2022-10-08T00:19:03.719Z,12.40
2022-10-08T00:21:35.461Z,12.50
2022-10-08T00:24:07.519Z,12.40
2022-10-08T00:26:42.544Z,12.50
2022-10-08T00:29:14.885Z,12.60
2022-10-08T00:31:46.428Z,12.60
2022-10-08T00:34:18.195Z,12.60
2022-10-08T00:36:47.333Z,12.50
2022-10-08T00:39:19.786Z,12.60
2022-10-08T00:41:51.562Z,12.60
2022-10-08T00:44:55.895Z,12.60
2022-10-08T00:47:40.553Z,12.50
2022-10-08T00:50:14.546Z,12.50
2022-10-08T00:52:46.636Z,12.40
2022-10-08T00:55:19.979Z,12.40
2022-10-08T00:57:48.453Z,12.40
2022-10-08T01:00:21.584Z,12.50
2022-10-08T01:02:49.968Z,12.30
2022-10-08T01:05:25.948Z,12.40
2022-10-08T01:08:02.786Z,12.40
2022-10-08T01:10:41.939Z,12.60
2022-10-08T01:13:22.391Z,12.50
2022-10-08T01:16:02.372Z,12.40
2022-10-08T01:18:40.418Z,12.30
2022-10-08T01:21:13.147Z,12.30
2022-10-08T01:24:09.479Z,12.30
2022-10-08T01:26:57.087Z,12.40
2022-10-08T01:29:31.006Z,12.20
2022-10-08T01:32:04.458Z,12.20
2022-10-08T01:34:38.414Z,12.20
2022-10-08T01:37:11.818Z,12.20
2022-10-08T01:39:41.931Z,12.10
2022-10-08T01:42:11.632Z,12.00
2022-10-08T01:44:46.312Z,11.80
2022-10-08T01:47:19.342Z,11.80
2022-10-08T01:49:52.570Z,11.50
2022-10-08T01:52:25.302Z,11.60
2022-10-08T01:54:59.347Z,11.60
2022-10-08T01:57:29.525Z,11.60
2022-10-08T02:00:06.069Z,11.30
2022-10-08T02:02:34.140Z,11.20
2022-10-08T02:05:02.208Z,11.30
2022-10-08T02:07:34.180Z,11.30
2022-10-08T02:10:09.445Z,11.20
2022-10-08T02:12:39.255Z,11.10
2022-10-08T02:15:13.437Z,11.00
2022-10-08T02:17:54.230Z,11.00
2022-10-08T02:20:29.278Z,11.20
2022-10-08T02:23:03.782Z,11.10
2022-10-08T02:25:36.958Z,11.00
2022-10-08T02:28:14.010Z,10.80
2022-10-08T02:30:50.218Z,10.90
2022-10-08T02:33:26.206Z,10.80
2022-10-08T02:35:58.593Z,10.80
2022-10-08T02:38:33.247Z,10.60
2022-10-08T02:41:04.683Z,10.70
2022-10-08T02:43:36.017Z,10.60
2022-10-08T02:46:10.304Z,10.70
2022-10-08T02:48:42.351Z,10.70
2022-10-08T02:51:15.755Z,10.60
2022-10-08T02:53:45.570Z,10.70
2022-10-08T02:56:19.883Z,10.80
2022-10-08T02:58:48.872Z,10.90
2022-10-08T03:01:26.555Z,10.60
2022-10-08T03:04:00.037Z,10.60
2022-10-08T03:06:29.809Z,10.60
2022-10-08T03:09:00.049Z,10.40
2022-10-08T03:11:29.319Z,10.40
2022-10-08T03:13:59.749Z,10.10
2022-10-08T03:16:37.347Z,10.10
2022-10-08T03:19:05.922Z,10.20
2022-10-08T03:21:34.431Z,10.10
2022-10-08T03:24:02.381Z,10.20
2022-10-08T03:26:30.342Z,10.30
2022-10-08T03:28:58.324Z,10.20
2022-10-08T03:31:27.976Z,10.10
2022-10-08T03:33:57.539Z,10.30
2022-10-08T03:36:26.777Z,10.10
2022-10-08T03:38:54.885Z,10.30
2022-10-08T03:41:23.178Z,10.40
2022-10-08T03:43:51.146Z,10.30
2022-10-08T03:46:19.185Z,10.00
2022-10-08T03:48:50.463Z,10.00
2022-10-08T03:51:20.245Z,10.00
2022-10-08T03:53:48.346Z,10.00
2022-10-08T03:56:19.156Z,9.70
2022-10-08T03:58:47.873Z,9.70
2022-10-08T04:01:18.469Z,9.60
2022-10-08T04:03:48.069Z,9.70
2022-10-08T04:06:16.433Z,9.80
2022-10-08T04:08:44.939Z,10.00
2022-10-08T04:11:15.544Z,10.10
2022-10-08T04:13:43.864Z,10.20
2022-10-08T04:16:14.637Z,10.30
2022-10-08T04:18:42.723Z,10.30
2022-10-08T04:21:14.699Z,10.20
2022-10-08T04:23:44.251Z,10.20
2022-10-08T04:26:14.545Z,10.10
2022-10-08T04:28:45.159Z,10.10
2022-10-08T04:31:17.227Z,10.30
2022-10-08T04:33:46.414Z,10.30
2022-10-08T04:36:18.495Z,10.20
2022-10-08T04:38:47.193Z,10.20
2022-10-08T04:41:17.466Z,10.20
2022-10-08T04:43:46.775Z,10.20
2022-10-08T04:46:17.515Z,10.20
2022-10-08T04:48:48.266Z,10.10
2022-10-08T04:51:18.387Z,10.20
2022-10-08T04:53:47.015Z,10.10
2022-10-08T04:56:18.224Z,10.10
2022-10-08T04:58:46.358Z,10.00
2022-10-08T05:01:17.009Z,10.10
2022-10-08T05:03:48.541Z,10.00
2022-10-08T05:06:20.512Z,10.00
2022-10-08T05:08:49.773Z,10.00
2022-10-08T05:11:19.571Z,10.00
2022-10-08T05:13:51.412Z,10.00
2022-10-08T05:16:20.761Z,10.00
2022-10-08T05:18:50.562Z,10.00
2022-10-08T05:21:23.760Z,9.90
2022-10-08T05:23:56.631Z,9.80
2022-10-08T05:26:46.512Z,9.80
2022-10-08T05:29:15.898Z,9.90
2022-10-08T05:31:43.828Z,9.80
2022-10-08T05:34:14.475Z,9.80
2022-10-08T05:36:43.938Z,9.70
2022-10-08T05:39:12.640Z,9.70
2022-10-08T05:41:41.365Z,9.70
2022-10-08T05:44:11.742Z,9.70
2022-10-08T05:46:40.975Z,9.70
2022-10-08T05:49:18.243Z,9.70
2022-10-08T05:51:51.301Z,9.70
2022-10-08T05:54:23.225Z,9.70
2022-10-08T05:56:51.501Z,9.70
2022-10-08T05:59:22.164Z,9.70
2022-10-08T06:01:53.137Z,9.60
2022-10-08T06:04:21.961Z,9.70
2022-10-08T06:06:51.688Z,9.70
2022-10-08T06:09:22.261Z,9.60
2022-10-08T06:11:51.222Z,9.70
2022-10-08T06:14:20.256Z,9.70
2022-10-08T06:16:48.638Z,9.80
2022-10-08T06:19:17.772Z,9.80
2022-10-08T06:21:45.857Z,9.80
2022-10-08T06:24:15.807Z,9.90
2022-10-08T06:26:45.237Z,9.80
2022-10-08T06:29:18.598Z,9.80
2022-10-08T06:31:47.873Z,9.80
2022-10-08T06:34:16.032Z,9.70
2022-10-08T06:36:43.984Z,9.60
2022-10-08T06:39:15.558Z,9.70
2022-10-08T06:41:45.715Z,9.70
2022-10-08T06:44:15.814Z,9.80
2022-10-08T06:46:44.474Z,9.70
2022-10-08T06:49:13.384Z,9.60
2022-10-08T06:51:42.234Z,9.70
2022-10-08T06:54:10.241Z,9.70
2022-10-08T06:56:40.136Z,9.70
2022-10-08T06:59:08.799Z,9.70
2022-10-08T07:01:38.438Z,9.80
2022-10-08T07:04:07.504Z,10.00
2022-10-08T07:06:35.932Z,10.20
2022-10-08T07:09:06.729Z,11.00
2022-10-08T07:11:35.878Z,12.00
2022-10-08T07:14:05.435Z,12.90
2022-10-08T07:16:33.514Z,13.70
2022-10-08T07:19:01.749Z,14.10
2022-10-08T07:21:31.197Z,14.50
2022-10-08T07:24:01.792Z,14.90
2022-10-08T07:26:34.301Z,15.50
2022-10-08T07:29:06.891Z,16.00
2022-10-08T07:31:37.689Z,16.70
2022-10-08T07:34:08.199Z,17.00
2022-10-08T07:36:36.639Z,16.90
2022-10-08T07:39:08.274Z,17.10
2022-10-08T07:41:36.888Z,17.40
2022-10-08T07:44:07.532Z,18.30
2022-10-08T07:46:37.890Z,18.00
2022-10-08T07:49:06.581Z,17.30
2022-10-08T07:51:36.500Z,16.90
2022-10-08T07:54:07.120Z,16.50
2022-10-08T07:56:36.338Z,16.20
2022-10-08T07:59:16.589Z,15.80
2022-10-08T08:01:46.792Z,15.60
2022-10-08T08:04:17.662Z,15.10
2022-10-08T08:06:49.593Z,14.90
2022-10-08T08:09:18.582Z,15.10
2022-10-08T08:11:47.234Z,14.90
2022-10-08T08:14:17.169Z,15.00
2022-10-08T08:16:45.308Z,15.30
2022-10-08T08:19:13.333Z,15.20
2022-10-08T08:21:41.467Z,15.40
2022-10-08T08:24:13.034Z,15.50
2022-10-08T08:26:47.820Z,15.90
2022-10-08T08:29:19.442Z,16.60
2022-10-08T08:31:50.926Z,17.30
2022-10-08T08:34:21.124Z,18.20
2022-10-08T08:36:51.201Z,18.40
2022-10-08T08:39:21.765Z,18.60
2022-10-08T08:42:03.416Z,18.50
2022-10-08T08:44:36.248Z,17.90
2022-10-08T08:47:12.182Z,17.60
2022-10-08T08:49:43.989Z,17.80
2022-10-08T08:52:20.399Z,17.90
2022-10-08T08:54:49.940Z,17.20
2022-10-08T08:57:33.996Z,16.90
2022-10-08T09:00:08.602Z,16.80
2022-10-08T09:02:41.624Z,16.70
2022-10-08T09:05:14.029Z,17.10
2022-10-08T09:07:46.812Z,17.20
2022-10-08T09:10:21.264Z,17.30
2022-10-08T09:12:52.379Z,17.90
2022-10-08T09:15:26.715Z,18.30
2022-10-08T09:17:55.317Z,19.10
2022-10-08T09:20:27.006Z,19.60
2022-10-08T09:22:57.798Z,20.40
2022-10-08T09:25:31.288Z,21.20
2022-10-08T09:28:04.095Z,21.20
2022-10-08T09:30:38.153Z,21.70
2022-10-08T09:33:25.442Z,22.00
2022-10-08T09:35:54.489Z,21.40
2022-10-08T09:38:25.275Z,21.00
2022-10-08T09:41:06.619Z,20.70
2022-10-08T09:43:35.552Z,20.00
2022-10-08T09:46:11.711Z,20.40
2022-10-08T09:48:41.601Z,20.60
2022-10-08T09:51:16.670Z,20.70
2022-10-08T09:53:48.472Z,20.40
2022-10-08T09:56:27.355Z,19.80
2022-10-08T09:58:59.834Z,19.50
2022-10-08T10:01:31.728Z,19.60
2022-10-08T10:04:03.134Z,18.90
2022-10-08T10:06:34.794Z,18.90
2022-10-08T10:09:12.813Z,18.70
2022-10-08T10:11:47.898Z,18.30
2022-10-08T10:14:25.683Z,18.30
2022-10-08T10:17:02.063Z,18.40
2022-10-08T10:19:44.074Z,18.40
2022-10-08T10:22:16.107Z,18.10
2022-10-08T10:24:54.625Z,18.10
2022-10-08T10:27:30.964Z,17.90
2022-10-08T10:30:13.814Z,17.80
2022-10-08T10:32:49.969Z,18.00
2022-10-08T10:35:26.208Z,18.70
2022-10-08T10:38:01.183Z,19.10
2022-10-08T10:40:38.864Z,19.50
2022-10-08T10:43:32.250Z,19.90
2022-10-08T10:46:14.089Z,20.40
2022-10-08T10:48:43.592Z,20.90
2022-10-08T10:51:30.806Z,21.70
2022-10-08T10:54:13.947Z,22.40
2022-10-08T10:56:50.414Z,23.20
2022-10-08T10:59:45.130Z,23.30
2022-10-08T11:02:24.313Z,23.30
2022-10-08T11:05:06.184Z,23.80
2022-10-08T11:07:52.043Z,23.90
2022-10-08T11:10:35.416Z,23.70
2022-10-08T11:13:19.744Z,23.30
2022-10-08T11:16:00.352Z,23.30
2022-10-08T11:18:45.312Z,23.30
2022-10-08T11:21:33.655Z,23.30
2022-10-08T11:24:30.755Z,23.50
2022-10-08T11:27:11.843Z,24.00
2022-10-08T11:29:52.095Z,23.90
2022-10-08T11:32:21.531Z,24.60
2022-10-08T11:34:54.336Z,24.70
2022-10-08T11:37:28.334Z,24.60
2022-10-08T11:40:05.035Z,24.30
2022-10-08T11:42:46.185Z,23.80
2022-10-08T11:45:30.981Z,23.40
2022-10-08T11:48:09.104Z,22.90
2022-10-08T11:50:42.368Z,22.40
2022-10-08T11:53:21.323Z,22.00
2022-10-08T11:55:53.276Z,21.70
2022-10-08T11:58:26.553Z,21.50
2022-10-08T12:01:02.748Z,21.50
2022-10-08T12:03:35.063Z,21.30
2022-10-08T12:06:17.980Z,21.10
2022-10-08T12:08:54.397Z,20.90
2022-10-08T12:11:49.914Z,20.90
2022-10-08T12:14:46.484Z,21.00
2022-10-08T12:17:15.159Z,21.30
2022-10-08T12:20:04.558Z,21.80
2022-10-08T12:23:00.937Z,21.90
2022-10-08T12:25:40.917Z,21.70
2022-10-08T12:28:50.780Z,21.50
2022-10-08T12:31:32.260Z,21.50
2022-10-08T12:34:03.427Z,21.50
2022-10-08T12:36:42.853Z,21.50
2022-10-08T12:39:21.174Z,21.30
2022-10-08T12:42:02.424Z,21.20
2022-10-08T12:44:45.780Z,21.20
2022-10-08T12:47:26.153Z,21.20
2022-10-08T12:50:00.906Z,21.10
2022-10-08T12:52:35.709Z,20.90
2022-10-08T12:55:06.664Z,20.70
2022-10-08T12:57:39.187Z,20.60
2022-10-08T13:00:10.405Z,20.50
2022-10-08T13:02:41.736Z,20.40
2022-10-08T13:05:26.161Z,20.40
2022-10-08T13:07:54.865Z,20.40
2022-10-08T13:10:28.681Z,20.30
2022-10-08T13:13:06.542Z,20.20
2022-10-08T13:15:35.784Z,20.20
2022-10-08T13:18:15.384Z,20.20
2022-10-08T13:20:58.337Z,20.20
2022-10-08T13:23:32.263Z,20.30
2022-10-08T13:26:00.730Z,20.30
2022-10-08T13:28:58.677Z,20.30
2022-10-08T13:31:24.953Z,20.30
2022-10-08T13:33:53.172Z,20.30
2022-10-08T13:36:24.095Z,20.30
2022-10-08T13:38:52.270Z,20.30
2022-10-08T13:41:24.168Z,20.30
2022-10-08T13:43:53.604Z,20.30
2022-10-08T13:46:21.706Z,20.20
2022-10-08T13:48:49.736Z,20.10
2022-10-08T13:51:17.878Z,20.00
2022-10-08T13:53:45.974Z,19.80
2022-10-08T13:56:14.155Z,19.70
2022-10-08T13:58:42.110Z,19.70
2022-10-08T14:01:11.558Z,19.60
2022-10-08T14:03:39.564Z,19.70
2022-10-08T14:06:08.347Z,19.70
2022-10-08T14:08:37.040Z,19.70
2022-10-08T14:11:06.757Z,19.70
2022-10-08T14:13:34.712Z,19.80
2022-10-08T15:50:29.307Z,19.00
2022-10-08T15:52:57.445Z,18.30
2022-10-08T15:55:25.448Z,17.20
2022-10-08T15:57:53.454Z,16.40
2022-10-08T16:00:22.491Z,16.00
2022-10-08T16:02:50.910Z,15.70
2022-10-08T16:05:19.442Z,15.30
2022-10-08T16:07:48.801Z,15.00
2022-10-08T16:10:16.886Z,14.80
2022-10-08T16:12:45.160Z,14.60
2022-10-08T16:15:13.381Z,14.60
2022-10-08T16:17:41.395Z,14.40
2022-10-08T16:20:10.559Z,14.30
2022-10-08T16:22:38.513Z,14.20
2022-10-08T16:25:08.923Z,14.10
2022-10-08T16:27:36.970Z,14.00
2022-10-08T16:30:05.969Z,14.00
2022-10-08T16:32:33.989Z,13.80
2022-10-08T16:35:01.941Z,13.70
2022-10-08T16:37:29.907Z,13.60
2022-10-08T16:40:03.700Z,13.60
2022-10-08T16:42:33.017Z,13.50
2022-10-08T16:45:00.971Z,13.40
2022-10-08T16:47:28.981Z,13.30
2022-10-08T16:49:56.923Z,13.30
2022-10-08T16:52:24.953Z,13.10
2022-10-08T16:54:54.718Z,13.00
2022-10-08T16:57:22.868Z,13.00
2022-10-08T16:59:52.162Z,12.90
2022-10-08T17:02:24.961Z,12.90
2022-10-08T17:04:54.037Z,12.80
2022-10-08T17:07:21.998Z,12.80
2022-10-08T17:09:49.968Z,12.80
2022-10-08T17:12:21.834Z,12.70
2022-10-08T17:17:19.729Z,12.70
2022-10-08T17:19:47.694Z,12.70
2022-10-08T17:22:16.789Z,12.80
2022-10-08T17:24:44.864Z,12.70
2022-10-08T17:27:13.361Z,12.60
2022-10-08T17:29:41.303Z,12.50
2022-10-08T17:32:11.503Z,12.60
2022-10-08T17:34:39.517Z,12.60
2022-10-08T17:37:07.685Z,12.60
2022-10-08T17:39:35.627Z,12.50
2022-10-08T17:42:06.973Z,12.60
2022-10-08T17:44:35.499Z,12.50
2022-10-08T17:47:03.531Z,12.60
2022-10-08T17:49:33.989Z,12.60
2022-10-08T17:52:02.154Z,12.60
2022-10-08T17:54:30.158Z,12.50
2022-10-08T17:57:00.469Z,12.50
2022-10-08T17:59:28.459Z,12.50
2022-10-08T18:01:56.559Z,12.50
2022-10-08T18:04:24.685Z,12.40
2022-10-08T18:06:58.676Z,12.30
2022-10-08T18:09:31.392Z,12.30
2022-10-08T18:11:59.405Z,12.40
2022-10-08T18:14:27.336Z,12.40
2022-10-08T18:16:55.460Z,12.40
2022-10-08T18:19:23.693Z,12.30
2022-10-08T18:21:53.091Z,12.30
2022-10-08T18:24:21.155Z,12.30
2022-10-08T18:26:49.154Z,12.30
2022-10-08T18:29:17.188Z,12.30
2022-10-08T18:31:48.561Z,12.20
2022-10-08T18:34:19.363Z,12.20
2022-10-08T18:36:48.840Z,12.20
2022-10-08T18:39:23.647Z,12.10
2022-10-08T18:41:56.235Z,12.10
2022-10-08T18:44:26.949Z,12.10
2022-10-08T18:46:55.039Z,12.10
2022-10-08T18:49:29.397Z,12.10
2022-10-08T18:52:01.980Z,12.10
2022-10-08T18:54:31.541Z,12.10
2022-10-08T18:57:00.304Z,12.10
2022-10-08T18:59:28.328Z,12.00
2022-10-08T19:01:59.553Z,12.00
2022-10-08T19:04:27.911Z,11.90
2022-10-08T19:06:55.878Z,11.90
2022-10-08T19:09:23.929Z,11.90
2022-10-08T19:11:55.670Z,11.90
2022-10-08T19:14:24.820Z,11.90
2022-10-08T19:16:53.398Z,11.90
2022-10-08T19:19:23.593Z,12.00
2022-10-08T19:21:52.931Z,11.90
2022-10-08T19:24:23.089Z,11.90
2022-10-08T19:26:53.347Z,11.90
2022-10-08T19:29:23.723Z,11.80
2022-10-08T19:31:52.164Z,11.80
2022-10-08T20:02:58.752Z,10.30
2022-10-08T20:05:27.029Z,11.10
2022-10-08T20:07:55.055Z,11.10
2022-10-08T20:10:23.187Z,11.00
2022-10-08T20:12:51.316Z,10.90
2022-10-08T20:15:19.425Z,10.90
2022-10-08T20:17:50.826Z,10.90
2022-10-08T20:20:32.942Z,10.80
2022-10-08T20:23:04.592Z,10.70
2022-10-08T20:25:32.710Z,10.60
2022-10-08T20:28:00.776Z,10.60
2022-10-08T20:30:31.436Z,10.50
2022-10-08T20:32:59.403Z,10.50
2022-10-08T20:35:31.087Z,10.50
2022-10-08T20:37:59.158Z,10.40
2022-10-08T20:40:27.190Z,10.40
2022-10-08T20:42:55.134Z,10.40
2022-10-08T20:45:23.066Z,10.40
2022-10-08T20:47:51.071Z,10.40
2022-10-08T20:50:19.020Z,10.30
2022-10-08T20:52:50.536Z,10.40
2022-10-08T20:55:19.548Z,10.30
2022-10-08T20:57:47.832Z,10.20
2022-10-08T21:00:16.715Z,10.20
2022-10-08T21:02:44.723Z,10.20
2022-10-08T21:05:13.087Z,10.10
2022-10-08T21:07:41.109Z,10.00
2022-10-08T21:10:11.477Z,10.00
2022-10-08T21:12:39.473Z,10.10
2022-10-08T21:15:09.600Z,10.20
2022-10-08T21:17:37.976Z,10.20
2022-10-08T21:20:06.992Z,10.20
2022-10-08T21:22:34.978Z,10.20
2022-10-08T21:25:03.242Z,10.10
2022-10-08T21:27:32.550Z,10.10
2022-10-08T21:30:00.464Z,10.10
2022-10-08T21:32:28.416Z,10.00
2022-10-08T21:34:56.426Z,10.00
2022-10-08T21:37:24.527Z,10.10
2022-10-08T21:39:52.583Z,10.00
2022-10-08T21:42:20.543Z,9.90
2022-10-08T21:44:49.907Z,9.80
2022-10-08T21:47:17.867Z,9.80
2022-10-08T21:49:45.900Z,9.70
2022-10-08T21:52:13.915Z,9.70
2022-10-08T21:54:41.884Z,9.60
2022-10-08T21:57:16.200Z,9.60
2022-10-08T21:59:50.629Z,9.50
2022-10-08T22:02:23.019Z,9.50
2022-10-08T22:04:51.197Z,9.40
2022-10-08T22:07:19.194Z,9.40
2022-10-08T22:09:47.129Z,9.30
2022-10-08T22:12:15.093Z,9.40
2022-10-08T22:14:43.019Z,9.30
2022-10-08T22:17:10.996Z,9.30
2022-10-08T22:19:40.558Z,9.30
2022-10-08T22:22:08.552Z,9.30
2022-10-08T22:24:37.895Z,9.20
2022-10-08T22:27:06.161Z,9.20
2022-10-08T22:29:35.450Z,9.10
2022-10-08T22:32:04.110Z,9.10
2022-10-08T22:34:32.127Z,9.10
2022-10-08T22:37:01.399Z,9.10
2022-10-08T22:39:29.542Z,9.20
2022-10-08T22:41:57.586Z,9.10
2022-10-08T22:44:25.627Z,9.10
2022-10-08T22:46:56.211Z,9.10
2022-10-08T22:49:24.228Z,9.10
2022-10-08T22:51:52.171Z,9.10
2022-10-08T22:54:21.537Z,9.10
2022-10-08T22:56:49.488Z,8.90
2022-10-08T22:59:17.711Z,8.90
2022-10-08T23:01:45.707Z,9.00
2022-10-08T23:04:16.746Z,9.00
2022-10-08T23:06:44.769Z,9.00
2022-10-08T23:09:13.514Z,8.90
2022-10-08T23:11:42.915Z,8.90
2022-10-08T23:14:11.359Z,8.90
2022-10-08T23:16:39.370Z,8.90
2022-10-08T23:19:09.825Z,8.90
2022-10-08T23:21:38.618Z,8.90
2022-10-08T23:24:07.396Z,8.80
2022-10-08T23:26:36.736Z,8.80
2022-10-08T23:29:06.497Z,8.80
2022-10-08T23:31:36.728Z,8.80
2022-10-08T23:34:06.404Z,8.80
2022-10-08T23:36:37.634Z,8.80
2022-10-08T23:39:06.539Z,8.80
2022-10-08T23:41:34.676Z,8.70
2022-10-08T23:44:02.811Z,8.70
2022-10-08T23:46:33.305Z,8.60
2022-10-08T23:49:01.732Z,8.60
2022-10-08T23:51:31.984Z,8.50
2022-10-08T23:54:01.321Z,8.40
2022-10-08T23:56:30.708Z,8.40
2022-10-08T23:58:58.994Z,8.40
